createdAt,value
2018-11-06T00:02:52.274Z,99.90
2018-11-06T00:05:56.438Z,99.90
2018-11-06T00:09:00.664Z,99.90
2018-11-06T00:12:04.947Z,99.90
2018-11-06T00:15:09.754Z,99.90
2018-11-06T00:18:13.914Z,99.90
2018-11-06T00:21:18.076Z,99.90
2018-11-06T00:24:22.239Z,99.90
2018-11-06T00:27:26.410Z,99.90
2018-11-06T00:30:30.566Z,99.90
2018-11-06T00:33:34.750Z,99.90
2018-11-06T00:36:38.911Z,99.70
2018-11-06T00:39:43.075Z,99.70
2018-11-06T00:42:47.240Z,99.70
2018-11-06T00:45:51.383Z,99.90
2018-11-06T00:48:55.546Z,99.90
2018-11-06T00:51:59.713Z,99.70
2018-11-06T00:55:06.066Z,99.70
2018-11-06T00:58:10.226Z,99.80
2018-11-06T01:01:14.390Z,99.80
2018-11-06T01:04:18.551Z,99.60
2018-11-06T01:07:22.711Z,99.70
2018-11-06T01:10:26.942Z,99.60
2018-11-06T01:13:31.107Z,99.80
2018-11-06T01:16:35.255Z,99.40
2018-11-06T01:19:39.357Z,99.50
2018-11-06T01:22:43.482Z,99.60
2018-11-06T01:25:47.631Z,99.30
2018-11-06T01:28:51.798Z,99.50
2018-11-06T01:31:55.963Z,99.50
2018-11-06T01:35:00.134Z,99.40
2018-11-06T01:38:04.325Z,99.80
2018-11-06T01:41:08.469Z,99.90
2018-11-06T01:44:12.627Z,99.60
2018-11-06T01:47:16.790Z,99.50
2018-11-06T01:50:20.954Z,99.20
2018-11-06T01:53:25.107Z,99.40
2018-11-06T01:56:29.264Z,99.30
2018-11-06T01:59:33.421Z,99.60
2018-11-06T02:02:37.582Z,99.20
2018-11-06T02:05:41.752Z,99.40
2018-11-06T02:08:45.913Z,99.60
2018-11-06T02:11:50.072Z,99.30
2018-11-06T02:14:54.234Z,99.40
2018-11-06T02:17:58.411Z,99.20
2018-11-06T02:21:02.558Z,99.40
2018-11-06T02:24:06.713Z,99.60
2018-11-06T02:27:10.870Z,99.50
2018-11-06T02:30:17.045Z,99.20
2018-11-06T02:33:21.211Z,99.50
2018-11-06T02:36:25.407Z,99.60
2018-11-06T02:39:29.562Z,99.90
2018-11-06T02:42:33.734Z,99.80
2018-11-06T02:45:37.922Z,99.40
2018-11-06T02:48:42.090Z,99.20
2018-11-06T02:51:46.249Z,99.20
2018-11-06T02:54:50.420Z,99.30
2018-11-06T02:57:54.579Z,99.30
2018-11-06T03:00:58.743Z,99.40
2018-11-06T03:04:02.889Z,99.40
2018-11-06T03:07:07.078Z,99.30
2018-11-06T03:10:12.337Z,99.30
2018-11-06T03:13:16.399Z,99.30
2018-11-06T03:16:20.518Z,99.60
2018-11-06T03:19:24.665Z,99.60
2018-11-06T03:22:28.804Z,99.70
2018-11-06T03:25:32.923Z,99.90
2018-11-06T03:28:37.058Z,99.80
2018-11-06T03:31:41.240Z,99.90
2018-11-06T03:34:45.717Z,99.90
2018-11-06T03:37:49.880Z,99.90
2018-11-06T03:40:54.068Z,99.80
2018-11-06T03:43:58.211Z,99.90
2018-11-06T03:47:02.386Z,99.70
2018-11-06T03:50:08.147Z,99.60
2018-11-06T03:53:12.318Z,99.70
2018-11-06T03:56:16.470Z,99.70
2018-11-06T03:59:21.002Z,99.80
2018-11-06T04:02:25.179Z,99.90
2018-11-06T04:05:29.334Z,99.90
2018-11-06T04:08:33.513Z,99.90
2018-11-06T04:11:37.991Z,99.60
2018-11-06T04:14:42.163Z,99.90
2018-11-06T04:17:46.308Z,99.90
2018-11-06T04:20:50.449Z,99.30
2018-11-06T04:23:54.598Z,99.40
2018-11-06T04:26:58.750Z,99.40
2018-11-06T04:30:02.919Z,99.60
2018-11-06T04:33:07.064Z,99.30
2018-11-06T04:36:11.190Z,99.20
2018-11-06T04:39:15.322Z,99.40
2018-11-06T04:42:19.451Z,99.50
2018-11-06T04:45:23.591Z,99.50
2018-11-06T04:48:27.734Z,99.60
2018-11-06T04:51:31.873Z,99.90
2018-11-06T04:54:35.998Z,99.60
2018-11-06T04:57:40.129Z,99.50
2018-11-06T05:00:44.254Z,99.80
2018-11-06T05:03:48.525Z,99.90
2018-11-06T05:06:52.713Z,99.90
2018-11-06T05:09:56.799Z,99.90
2018-11-06T05:13:00.943Z,99.90
2018-11-06T05:16:05.538Z,99.90
2018-11-06T05:19:09.718Z,99.90
2018-11-06T05:22:13.842Z,99.90
2018-11-06T05:25:18.005Z,99.40
2018-11-06T05:28:22.122Z,99.60
2018-11-06T05:31:26.251Z,99.80
2018-11-06T05:34:30.390Z,99.40
2018-11-06T05:37:34.549Z,99.90
2018-11-06T05:40:51.741Z,99.90
2018-11-06T05:43:55.840Z,99.90
2018-11-06T05:46:59.972Z,99.90
2018-11-06T05:50:04.114Z,99.90
2018-11-06T05:53:08.307Z,99.90
2018-11-06T05:56:12.394Z,99.90
2018-11-06T05:59:16.531Z,99.90
2018-11-06T06:02:20.658Z,99.90
2018-11-06T06:05:24.816Z,99.90
2018-11-06T06:08:28.937Z,99.90
2018-11-06T06:11:33.047Z,99.90
2018-11-06T06:14:37.189Z,99.90
2018-11-06T06:17:41.310Z,99.90
2018-11-06T06:20:45.433Z,99.90
2018-11-06T06:23:49.640Z,99.90
2018-11-06T06:26:53.770Z,99.90
2018-11-06T06:29:57.908Z,99.90
2018-11-06T06:33:02.074Z,99.90
2018-11-06T06:36:06.275Z,99.90
2018-11-06T06:39:10.930Z,99.90
2018-11-06T06:42:15.062Z,99.90
2018-11-06T06:45:19.872Z,99.90
2018-11-06T06:48:24.010Z,99.90
2018-11-06T06:51:28.162Z,99.90
2018-11-06T06:54:32.500Z,99.90
2018-11-06T06:57:37.042Z,99.90
2018-11-06T07:00:41.194Z,99.90
2018-11-06T07:03:45.319Z,99.90
2018-11-06T07:06:49.755Z,99.90
2018-11-06T07:09:53.926Z,99.90
2018-11-06T07:12:58.149Z,99.90
2018-11-06T07:16:02.226Z,99.90
2018-11-06T07:19:06.370Z,99.90
2018-11-06T07:22:10.508Z,99.90
2018-11-06T07:25:15.133Z,99.90
2018-11-06T07:28:19.269Z,99.90
2018-11-06T07:31:23.422Z,99.90
2018-11-06T07:34:27.616Z,99.90
2018-11-06T07:37:31.722Z,99.90
2018-11-06T07:40:35.907Z,99.90
2018-11-06T07:43:40.017Z,99.90
2018-11-06T07:46:44.162Z,99.90
2018-11-06T07:49:48.342Z,99.90
2018-11-06T07:52:52.452Z,99.90
2018-11-06T07:55:56.615Z,99.90
2018-11-06T07:59:00.863Z,99.90
2018-11-06T08:02:05.437Z,99.90
2018-11-06T08:05:09.594Z,99.90
2018-11-06T08:08:13.783Z,99.90
2018-11-06T08:11:17.964Z,99.90
2018-11-06T08:14:22.120Z,99.90
2018-11-06T08:17:26.266Z,99.70
2018-11-06T08:20:30.481Z,99.60
2018-11-06T08:23:34.617Z,99.60
2018-11-06T08:26:38.706Z,99.60
2018-11-06T08:29:42.871Z,99.80
2018-11-06T08:32:47.241Z,99.70
2018-11-06T08:35:51.162Z,99.50
2018-11-06T08:38:55.305Z,99.50
2018-11-06T08:41:59.458Z,99.60
2018-11-06T08:45:04.102Z,99.60
2018-11-06T08:48:08.289Z,99.50
2018-11-06T08:51:12.413Z,99.40
2018-11-06T08:54:16.554Z,99.30
2018-11-06T08:57:20.713Z,99.30
2018-11-06T09:00:24.879Z,99.20
2018-11-06T09:03:29.046Z,98.90
2018-11-06T09:06:33.183Z,99.00
2018-11-06T09:09:37.339Z,99.10
2018-11-06T09:12:41.606Z,99.00
2018-11-06T09:15:45.758Z,98.80
2018-11-06T09:18:49.914Z,98.60
2018-11-06T09:21:54.085Z,98.40
2018-11-06T09:24:58.225Z,98.60
2018-11-06T09:28:02.368Z,98.30
2018-11-06T09:31:06.869Z,97.80
2018-11-06T09:34:10.934Z,97.60
2018-11-06T09:37:15.160Z,97.20
2018-11-06T09:40:20.034Z,97.20
2018-11-06T09:43:24.162Z,96.90
2018-11-06T09:46:28.309Z,96.60
2018-11-06T09:49:32.458Z,96.50
2018-11-06T09:52:36.600Z,96.70
2018-11-06T09:55:40.745Z,96.70
2018-11-06T09:58:44.874Z,96.60
2018-11-06T10:01:49.014Z,96.20
2018-11-06T10:04:53.169Z,96.20
2018-11-06T10:07:57.393Z,95.90
2018-11-06T10:11:01.446Z,95.60
2018-11-06T10:14:05.994Z,95.60
2018-11-06T10:17:10.145Z,95.90
2018-11-06T10:20:15.290Z,96.10
2018-11-06T10:23:19.411Z,96.20
2018-11-06T10:26:23.570Z,96.40
2018-11-06T10:29:27.699Z,96.20
2018-11-06T10:32:31.866Z,96.30
2018-11-06T10:35:36.018Z,96.50
2018-11-06T10:38:40.167Z,96.60
2018-11-06T10:41:44.309Z,96.10
2018-11-06T10:44:48.457Z,95.60
2018-11-06T10:47:52.617Z,95.60
2018-11-06T10:50:56.776Z,96.30
2018-11-06T10:54:00.918Z,95.60
2018-11-06T10:57:05.303Z,96.20
2018-11-06T11:00:16.646Z,95.70
2018-11-06T11:03:26.034Z,94.90
2018-11-06T11:06:30.213Z,95.30
2018-11-06T11:09:34.350Z,94.90
2018-11-06T11:12:38.653Z,94.10
2018-11-06T11:15:42.678Z,94.40
2018-11-06T11:18:46.819Z,94.10
2018-11-06T11:21:50.967Z,93.90
2018-11-06T11:24:55.118Z,94.00
2018-11-06T11:27:59.267Z,93.80
2018-11-06T11:31:03.413Z,93.70
2018-11-06T11:34:07.559Z,94.10
2018-11-06T11:37:11.692Z,94.00
2018-11-06T11:40:16.514Z,93.80
2018-11-06T11:43:20.644Z,93.70
2018-11-06T11:46:24.772Z,93.20
2018-11-06T11:49:28.890Z,92.40
2018-11-06T11:52:33.024Z,92.40
2018-11-06T11:55:37.177Z,92.00
2018-11-06T11:58:41.299Z,92.10
2018-11-06T12:01:45.428Z,91.90
2018-11-06T12:04:49.558Z,91.90
2018-11-06T12:07:53.678Z,91.70
2018-11-06T12:10:57.818Z,91.50
2018-11-06T12:14:01.946Z,91.10
2018-11-06T12:17:06.067Z,91.20
2018-11-06T12:20:10.454Z,91.10
2018-11-06T12:23:14.583Z,91.00
2018-11-06T12:26:18.715Z,90.80
2018-11-06T12:29:22.851Z,91.10
2018-11-06T12:32:27.006Z,91.30
2018-11-06T12:35:31.126Z,90.90
2018-11-06T12:38:35.254Z,91.10
2018-11-06T12:41:39.382Z,90.90
2018-11-06T12:44:43.790Z,90.50
2018-11-06T12:47:47.974Z,89.70
2018-11-06T12:50:52.090Z,89.70
2018-11-06T12:53:56.222Z,89.20
2018-11-06T12:57:00.365Z,88.60
2018-11-06T13:00:04.498Z,87.80
2018-11-06T13:03:08.637Z,88.50
2018-11-06T13:06:12.786Z,89.40
2018-11-06T13:09:16.906Z,86.80
2018-11-06T13:12:21.030Z,87.40
2018-11-06T13:15:25.166Z,87.10
2018-11-06T13:18:29.282Z,87.40
2018-11-06T13:21:33.406Z,87.60
2018-11-06T13:24:37.521Z,88.20
2018-11-06T13:27:42.346Z,89.10
2018-11-06T13:30:46.525Z,89.70
2018-11-06T13:33:50.895Z,90.40
2018-11-06T13:36:55.038Z,90.70
2018-11-06T13:39:59.183Z,90.90
2018-11-06T13:43:03.419Z,91.30
2018-11-06T13:46:07.482Z,91.70
2018-11-06T13:49:11.637Z,91.80
2018-11-06T13:52:15.849Z,92.00
2018-11-06T13:55:19.922Z,92.30
2018-11-06T13:58:24.066Z,92.20
2018-11-06T14:01:28.211Z,92.60
2018-11-06T14:04:32.354Z,92.80
2018-11-06T14:07:36.595Z,93.40
2018-11-06T14:10:40.726Z,93.40
2018-11-06T14:13:44.878Z,93.20
2018-11-06T14:16:49.041Z,93.70
2018-11-06T14:19:53.193Z,93.60
2018-11-06T14:22:57.343Z,93.70
2018-11-06T14:26:01.496Z,93.40
2018-11-06T14:29:05.646Z,93.80
2018-11-06T14:32:09.788Z,94.20
2018-11-06T14:35:15.055Z,94.70
2018-11-06T14:38:19.174Z,94.60
2018-11-06T14:41:23.322Z,94.90
2018-11-06T14:44:27.451Z,95.40
2018-11-06T14:47:31.581Z,95.90
2018-11-06T14:50:35.695Z,96.00
2018-11-06T14:53:39.818Z,96.10
2018-11-06T14:56:43.931Z,96.50
2018-11-06T14:59:48.051Z,96.70
2018-11-06T15:02:53.230Z,96.90
2018-11-06T15:05:57.354Z,97.00
2018-11-06T15:09:01.483Z,97.10
2018-11-06T15:12:05.597Z,97.20
2018-11-06T15:15:11.016Z,97.70
2018-11-06T15:18:15.142Z,97.60
2018-11-06T15:21:19.262Z,97.70
2018-11-06T15:24:23.390Z,97.90
2018-11-06T15:27:27.522Z,97.90
2018-11-06T15:30:31.655Z,98.30
2018-11-06T15:33:35.819Z,98.30
2018-11-06T15:36:39.970Z,98.40
2018-11-06T15:39:44.119Z,98.50
2018-11-06T15:42:48.302Z,98.50
2018-11-06T15:45:52.520Z,98.60
2018-11-06T15:48:56.706Z,98.80
2018-11-06T15:52:00.915Z,98.80
2018-11-06T15:55:05.478Z,98.90
2018-11-06T15:58:09.912Z,98.90
2018-11-06T16:01:14.057Z,99.20
2018-11-06T16:04:18.226Z,98.90
2018-11-06T16:07:22.382Z,98.80
2018-11-06T16:10:26.671Z,98.70
2018-11-06T16:13:30.817Z,98.50
2018-11-06T16:16:34.971Z,98.40
2018-11-06T16:19:39.130Z,98.30
2018-11-06T16:22:43.700Z,98.10
2018-11-06T16:25:47.859Z,98.10
2018-11-06T16:28:52.031Z,98.40
2018-11-06T16:31:56.188Z,98.00
2018-11-06T16:35:00.678Z,98.20
2018-11-06T16:38:04.872Z,98.30
2018-11-06T16:41:09.047Z,98.50
2018-11-06T16:44:13.215Z,98.60
2018-11-06T16:47:17.491Z,98.50
2018-11-06T16:50:21.810Z,98.40
2018-11-06T16:53:25.967Z,98.20
2018-11-06T16:56:30.115Z,98.00
2018-11-06T16:59:34.270Z,98.00
2018-11-06T17:02:38.449Z,98.00
2018-11-06T17:05:42.587Z,98.00
2018-11-06T17:08:46.744Z,97.90
2018-11-06T17:11:50.889Z,97.80
2018-11-06T17:14:55.047Z,97.70
2018-11-06T17:17:59.231Z,97.90
2018-11-06T17:21:03.405Z,97.70
2018-11-06T17:24:13.811Z,97.80
2018-11-06T17:27:20.896Z,97.80
2018-11-06T17:30:25.162Z,97.80
2018-11-06T17:33:29.430Z,97.80
2018-11-06T17:36:33.581Z,98.00
2018-11-06T17:39:37.874Z,98.50
2018-11-06T17:42:42.326Z,98.50
2018-11-06T17:45:46.514Z,98.60
2018-11-06T17:48:50.662Z,98.50
2018-11-06T17:51:54.861Z,98.30
2018-11-06T17:54:59.027Z,98.10
2018-11-06T17:58:03.191Z,98.00
2018-11-06T18:01:07.366Z,98.00
2018-11-06T18:04:11.625Z,98.00
2018-11-06T18:07:15.690Z,98.20
2018-11-06T18:10:20.597Z,98.20
2018-11-06T18:13:25.182Z,98.40
2018-11-06T18:16:29.318Z,98.30
2018-11-06T18:19:33.450Z,98.50
2018-11-06T18:22:37.830Z,98.70
2018-11-06T18:25:42.065Z,98.70
2018-11-06T18:28:46.118Z,99.00
2018-11-06T18:31:50.409Z,98.80
2018-11-06T18:34:54.440Z,98.90
2018-11-06T18:37:58.588Z,99.00
2018-11-06T18:41:02.726Z,99.00
2018-11-06T18:44:07.118Z,98.90
2018-11-06T18:47:11.294Z,98.90
2018-11-06T18:50:16.730Z,99.00
2018-11-06T18:53:20.871Z,99.00
2018-11-06T18:56:25.008Z,98.90
2018-11-06T18:59:29.151Z,98.90
2018-11-06T19:02:33.333Z,98.70
2018-11-06T19:05:37.456Z,99.10
2018-11-06T19:08:41.633Z,99.00
2018-11-06T19:11:45.770Z,99.00
2018-11-06T19:14:49.962Z,99.00
2018-11-06T19:17:54.134Z,98.80
2018-11-06T19:20:58.266Z,99.00
2018-11-06T19:24:02.442Z,99.00
2018-11-06T19:27:06.632Z,99.30
2018-11-06T19:30:16.174Z,99.40
2018-11-06T19:33:20.250Z,99.60
2018-11-06T19:36:24.430Z,99.70
2018-11-06T19:39:28.565Z,99.50
2018-11-06T19:42:32.733Z,99.50
2018-11-06T19:45:36.827Z,99.90
2018-11-06T19:48:41.011Z,99.90
2018-11-06T19:51:45.098Z,99.90
2018-11-06T19:54:49.238Z,99.90
2018-11-06T19:57:53.362Z,99.90
2018-11-06T20:00:57.584Z,99.90
2018-11-06T20:04:01.657Z,99.90
2018-11-06T20:07:05.818Z,99.90
2018-11-06T20:10:12.349Z,99.60
2018-11-06T20:13:16.478Z,99.90
2018-11-06T20:16:20.610Z,99.50
2018-11-06T20:19:24.740Z,99.60
2018-11-06T20:22:28.866Z,99.50
2018-11-06T20:25:33.011Z,99.60
2018-11-06T20:28:37.146Z,99.70
2018-11-06T20:31:41.289Z,99.40
2018-11-06T20:34:45.427Z,99.50
2018-11-06T20:37:49.609Z,99.40
2018-11-06T20:40:53.714Z,99.60
2018-11-06T20:43:57.842Z,99.40
2018-11-06T20:47:01.968Z,99.50
2018-11-06T20:50:09.634Z,99.40
2018-11-06T20:53:13.833Z,99.90
2018-11-06T20:56:17.895Z,99.90
2018-11-06T20:59:22.041Z,99.70
2018-11-06T21:02:26.174Z,99.80
2018-11-06T21:05:30.325Z,99.90
2018-11-06T21:08:34.486Z,99.80
2018-11-06T21:11:39.206Z,99.90
2018-11-06T21:14:43.342Z,99.90
2018-11-06T21:17:47.626Z,99.90
2018-11-06T21:20:51.698Z,99.90
2018-11-06T21:23:55.820Z,99.80
2018-11-06T21:27:00.117Z,99.90
2018-11-06T21:30:04.279Z,99.90
2018-11-06T21:33:08.418Z,99.90
2018-11-06T21:36:12.536Z,99.90
2018-11-06T21:39:16.776Z,99.90
2018-11-06T21:42:20.798Z,99.90
2018-11-06T21:45:24.939Z,99.90
2018-11-06T21:48:29.058Z,99.90
2018-11-06T21:51:33.186Z,99.90
2018-11-06T21:54:37.337Z,99.90
2018-11-06T21:57:41.505Z,99.90
2018-11-06T22:00:45.681Z,99.90
2018-11-06T22:03:49.811Z,99.60
2018-11-06T22:06:53.941Z,99.90
2018-11-06T22:09:58.094Z,99.90
2018-11-06T22:13:02.255Z,99.90
2018-11-06T22:16:06.809Z,99.90
2018-11-06T22:19:10.963Z,99.80
2018-11-06T22:22:15.201Z,99.90
2018-11-06T22:25:19.278Z,99.90
2018-11-06T22:28:23.422Z,99.90
2018-11-06T22:31:27.625Z,99.90
2018-11-06T22:34:31.690Z,99.90
2018-11-06T22:37:35.815Z,99.90
2018-11-06T22:40:39.964Z,99.90
2018-11-06T22:43:44.096Z,99.90
2018-11-06T22:46:48.235Z,99.90
2018-11-06T22:49:52.370Z,99.90
2018-11-06T22:52:56.510Z,99.90
2018-11-06T22:56:00.657Z,99.90
2018-11-06T22:59:04.797Z,99.90
2018-11-06T23:02:08.937Z,99.90
2018-11-06T23:05:13.274Z,99.90
2018-11-06T23:08:22.622Z,99.90
2018-11-06T23:11:26.758Z,99.90
2018-11-06T23:14:30.937Z,99.90
2018-11-06T23:17:35.018Z,99.90
2018-11-06T23:20:39.151Z,99.90
2018-11-06T23:23:43.250Z,99.90
2018-11-06T23:26:47.380Z,99.90
2018-11-06T23:29:51.505Z,99.90
2018-11-06T23:32:55.661Z,99.90
2018-11-06T23:35:59.812Z,99.90
2018-11-06T23:39:04.502Z,99.90
2018-11-06T23:42:08.660Z,99.90
2018-11-06T23:45:12.802Z,99.90
2018-11-06T23:48:16.950Z,99.90
2018-11-06T23:51:21.102Z,99.90
2018-11-06T23:54:25.231Z,99.90
2018-11-06T23:57:30.162Z,99.90
